Fairdale, Texas
Current Conditions -  °F | °C
As of 10:15 AM on Monday 26 Jan 2015 (Local Time) from KJAS Reporting Station
Clear Clear  
Wind Chill: 53°   Ceiling: Unl
Heat Index: 53°   Visibility: 10mi
Dew Point: 35°   Wind: 7mph
Humidity: 51%   Direction: 340°NNW
Pressure: 30.25"   Gusts: NA
Location:  31.2799°N, 93.803°W
Report Text: KJAS 261615Z AUTO 34006KT 10SM CLR 12/02 A3025 RMK AO2 T01170019
Loading
Personal Weather Stations






























Interactive Weather Map New forecast layout! Learn more

10-Day Weather Forecast

Advertisements
Track Severe Weather on mobile